createdAt,value
2022-09-10T00:01:20.151Z,100.00
2022-09-10T00:03:50.179Z,100.00
2022-09-10T00:06:19.550Z,100.00
2022-09-10T00:08:49.229Z,100.00
2022-09-10T00:11:17.634Z,100.00
2022-09-10T00:13:45.910Z,100.00
2022-09-10T00:16:15.923Z,100.00
2022-09-10T00:18:44.237Z,100.00
2022-09-10T00:21:15.294Z,100.00
2022-09-10T00:23:45.555Z,100.00
2022-09-10T00:26:17.202Z,100.00
2022-09-10T00:28:45.546Z,100.00
2022-09-10T00:31:14.321Z,100.00
2022-09-10T00:33:42.876Z,100.00
2022-09-10T00:36:18.035Z,100.00
2022-09-10T00:38:47.006Z,100.00
2022-09-10T00:41:15.944Z,100.00
2022-09-10T00:43:49.841Z,100.00
2022-09-10T00:46:30.070Z,100.00
2022-09-10T00:49:00.407Z,100.00
2022-09-10T00:51:31.361Z,100.00
2022-09-10T00:54:00.294Z,100.00
2022-09-10T00:56:29.647Z,100.00
2022-09-10T00:58:58.095Z,100.00
2022-09-10T01:01:26.615Z,100.00
2022-09-10T01:03:55.638Z,100.00
2022-09-10T01:06:24.270Z,100.00
2022-09-10T01:08:53.903Z,100.00
2022-09-10T01:11:42.482Z,100.00
2022-09-10T01:14:29.747Z,100.00
2022-09-10T01:17:04.543Z,100.00
2022-09-10T01:20:02.824Z,100.00
2022-09-10T01:22:38.535Z,100.00
2022-09-10T01:25:14.656Z,100.00
2022-09-10T01:27:45.637Z,100.00
2022-09-10T01:30:18.119Z,100.00
2022-09-10T01:32:53.008Z,100.00
2022-09-10T01:35:24.979Z,100.00
2022-09-10T01:37:55.308Z,100.00
2022-09-10T01:40:29.579Z,100.00
2022-09-10T01:43:02.515Z,100.00
2022-09-10T01:45:31.099Z,100.00
2022-09-10T01:48:22.344Z,100.00
2022-09-10T01:50:57.260Z,100.00
2022-09-10T01:53:48.205Z,100.00
2022-09-10T01:56:25.247Z,100.00
2022-09-10T01:58:58.987Z,100.00
2022-09-10T02:01:30.110Z,100.00
2022-09-10T02:04:01.056Z,100.00
2022-09-10T02:06:31.025Z,100.00
2022-09-10T02:09:00.493Z,100.00
2022-09-10T02:11:29.812Z,100.00
2022-09-10T02:13:59.612Z,100.00
2022-09-10T02:16:31.555Z,100.00
2022-09-10T02:19:01.353Z,100.00
2022-09-10T02:21:29.847Z,100.00
2022-09-10T02:23:59.415Z,100.00
2022-09-10T02:26:27.956Z,100.00
2022-09-10T02:28:56.256Z,100.00
2022-09-10T02:31:26.092Z,100.00
2022-09-10T02:33:54.934Z,100.00
2022-09-10T02:36:26.034Z,100.00
2022-09-10T02:38:56.861Z,100.00
2022-09-10T02:41:25.706Z,100.00
2022-09-10T02:43:53.985Z,100.00
2022-09-10T02:46:22.497Z,100.00
2022-09-10T02:48:54.900Z,100.00
2022-09-10T02:51:23.185Z,100.00
2022-09-10T02:53:51.398Z,100.00
2022-09-10T02:56:20.610Z,100.00
2022-09-10T02:58:48.879Z,100.00
2022-09-10T03:01:19.361Z,100.00
2022-09-10T03:03:50.082Z,100.00
2022-09-10T03:06:21.211Z,100.00
2022-09-10T03:08:49.989Z,100.00
2022-09-10T03:11:18.823Z,100.00
2022-09-10T03:13:47.909Z,100.00
2022-09-10T03:16:16.496Z,100.00
2022-09-10T03:18:45.173Z,100.00
2022-09-10T03:21:14.887Z,100.00
2022-09-10T03:23:44.887Z,100.00
2022-09-10T03:26:14.345Z,100.00
2022-09-10T03:28:43.595Z,100.00
2022-09-10T03:31:13.616Z,100.00
2022-09-10T03:33:42.077Z,100.00
2022-09-10T03:36:10.891Z,100.00
2022-09-10T03:38:39.354Z,100.00
2022-09-10T03:41:09.028Z,100.00
2022-09-10T03:43:37.284Z,100.00
2022-09-10T03:46:05.671Z,100.00
2022-09-10T03:48:34.607Z,100.00
2022-09-10T03:51:02.890Z,100.00
2022-09-10T03:53:31.132Z,100.00
2022-09-10T03:55:59.382Z,100.00
2022-09-10T03:58:29.027Z,100.00
2022-09-10T04:00:57.346Z,100.00
2022-09-10T04:03:25.995Z,100.00
2022-09-10T04:05:54.183Z,100.00
2022-09-10T04:08:23.287Z,100.00
2022-09-10T04:10:51.487Z,100.00
2022-09-10T04:13:19.852Z,100.00
2022-09-10T04:15:49.459Z,100.00
2022-09-10T04:18:18.031Z,100.00
2022-09-10T04:20:47.962Z,100.00
2022-09-10T04:23:16.819Z,100.00
2022-09-10T04:25:45.215Z,100.00
2022-09-10T04:28:13.560Z,100.00
2022-09-10T04:30:41.839Z,100.00
2022-09-10T04:33:11.638Z,100.00
2022-09-10T04:35:40.477Z,100.00
2022-09-10T04:38:09.031Z,100.00
2022-09-10T04:40:38.144Z,100.00
2022-09-10T04:43:06.481Z,100.00
2022-09-10T04:45:34.775Z,100.00
2022-09-10T04:48:06.807Z,100.00
2022-09-10T04:50:36.856Z,100.00
2022-09-10T04:53:05.147Z,100.00
2022-09-10T04:55:33.466Z,100.00
2022-09-10T04:58:01.778Z,100.00
2022-09-10T05:00:30.420Z,100.00
2022-09-10T05:02:58.828Z,100.00
2022-09-10T05:05:28.455Z,100.00
2022-09-10T05:08:00.147Z,100.00
2022-09-10T05:10:28.665Z,100.00
2022-09-10T05:12:56.940Z,100.00
2022-09-10T05:15:25.310Z,100.00
2022-09-10T05:17:56.073Z,100.00
2022-09-10T05:20:24.351Z,100.00
2022-09-10T05:22:53.309Z,100.00
2022-09-10T05:25:23.248Z,100.00
2022-09-10T05:27:52.465Z,100.00
2022-09-10T05:30:20.920Z,100.00
2022-09-10T05:32:53.418Z,100.00
2022-09-10T05:35:21.732Z,100.00
2022-09-10T05:37:49.990Z,100.00
2022-09-10T05:40:18.666Z,100.00
2022-09-10T05:42:48.276Z,100.00
2022-09-10T05:45:16.680Z,100.00
2022-09-10T05:47:44.931Z,100.00
2022-09-10T05:50:14.266Z,100.00
2022-09-10T05:52:42.521Z,100.00
2022-09-10T05:55:11.260Z,100.00
2022-09-10T05:57:40.299Z,100.00
2022-09-10T06:00:11.714Z,100.00
2022-09-10T06:02:40.010Z,100.00
2022-09-10T06:05:09.042Z,100.00
2022-09-10T06:07:37.356Z,100.00
2022-09-10T06:10:06.390Z,100.00
2022-09-10T06:12:34.670Z,100.00
2022-09-10T06:15:03.616Z,100.00
2022-09-10T06:17:33.225Z,100.00
2022-09-10T06:20:01.537Z,100.00
2022-09-10T06:22:30.924Z,100.00
2022-09-10T06:24:59.228Z,100.00
2022-09-10T06:27:27.522Z,100.00
2022-09-10T06:29:56.337Z,100.00
2022-09-10T06:32:24.659Z,100.00
2022-09-10T06:34:54.191Z,100.00
2022-09-10T06:37:24.237Z,100.00
2022-09-10T06:39:52.534Z,100.00
2022-09-10T06:42:20.799Z,100.00
2022-09-10T06:44:50.301Z,100.00
2022-09-10T06:48:06.529Z,100.00
2022-09-10T06:50:09.923Z,100.00
2022-09-10T06:52:39.299Z,100.00
2022-09-10T06:55:08.360Z,100.00
2022-09-10T06:57:36.616Z,100.00
2022-09-10T07:00:06.475Z,100.00
2022-09-10T07:02:34.723Z,100.00
2022-09-10T07:05:02.937Z,100.00
2022-09-10T07:07:32.539Z,100.00
2022-09-10T07:10:01.519Z,100.00
2022-09-10T07:12:30.007Z,100.00
2022-09-10T07:14:58.254Z,100.00
2022-09-10T07:17:31.112Z,100.00
2022-09-10T07:20:00.088Z,100.00
2022-09-10T07:22:28.399Z,100.00
2022-09-10T07:24:57.991Z,100.00
2022-09-10T07:27:26.212Z,100.00
2022-09-10T07:29:54.481Z,100.00
2022-09-10T07:32:22.755Z,100.00
2022-09-10T07:34:52.251Z,100.00
2022-09-10T07:37:20.534Z,100.00
2022-09-10T07:39:49.595Z,100.00
2022-09-10T07:42:19.278Z,100.00
2022-09-10T07:44:47.590Z,100.00
2022-09-10T07:47:15.943Z,100.00
2022-09-10T07:49:44.682Z,100.00
2022-09-10T07:52:13.532Z,100.00
2022-09-10T07:54:41.798Z,100.00
2022-09-10T07:57:10.168Z,100.00
2022-09-10T07:59:40.081Z,100.00
2022-09-10T08:02:09.704Z,100.00
2022-09-10T08:04:37.991Z,100.00
2022-09-10T08:07:06.535Z,100.00
2022-09-10T08:09:34.825Z,100.00
2022-09-10T08:12:03.275Z,100.00
2022-09-10T08:14:31.670Z,100.00
2022-09-10T08:17:02.188Z,100.00
2022-09-10T08:19:30.855Z,100.00
2022-09-10T08:21:59.163Z,100.00
2022-09-10T08:24:28.210Z,100.00
2022-09-10T08:26:56.495Z,100.00
2022-09-10T08:29:24.727Z,100.00
2022-09-10T08:31:52.955Z,100.00
2022-09-10T08:34:22.814Z,100.00
2022-09-10T08:36:51.040Z,100.00
2022-09-10T08:39:19.251Z,100.00
2022-09-10T08:41:52.153Z,100.00
2022-09-10T08:44:29.334Z,100.00
2022-09-10T08:47:04.477Z,100.00
2022-09-10T08:49:37.860Z,100.00
2022-09-10T08:52:11.486Z,100.00
2022-09-10T08:54:42.623Z,100.00
2022-09-10T08:57:21.395Z,100.00
2022-09-10T08:59:52.258Z,100.00
2022-09-10T09:02:47.128Z,100.00
2022-09-10T09:05:15.892Z,100.00
2022-09-10T09:07:44.422Z,100.00
2022-09-10T09:10:27.697Z,100.00
2022-09-10T09:13:38.187Z,100.00
2022-09-10T09:16:09.111Z,100.00
2022-09-10T09:18:40.170Z,100.00
2022-09-10T09:21:17.013Z,100.00
2022-09-10T09:24:11.573Z,100.00
2022-09-10T09:26:39.549Z,100.00
2022-09-10T09:29:13.167Z,100.00
2022-09-10T09:31:45.698Z,100.00
2022-09-10T09:34:19.538Z,100.00
2022-09-10T09:36:50.903Z,100.00
2022-09-10T09:39:25.309Z,100.00
2022-09-10T09:42:01.218Z,100.00
2022-09-10T09:44:32.806Z,100.00
2022-09-10T09:47:01.015Z,100.00
2022-09-10T09:49:29.871Z,100.00
2022-09-10T09:51:59.606Z,100.00
2022-09-10T09:57:20.991Z,100.00
2022-09-10T09:59:50.395Z,100.00
2022-09-10T10:02:20.763Z,100.00
2022-09-10T10:04:57.462Z,100.00
2022-09-10T10:07:31.571Z,100.00
2022-09-10T10:10:01.429Z,100.00
2022-09-10T10:12:32.736Z,100.00
2022-09-10T10:15:02.631Z,100.00
2022-09-10T10:17:40.874Z,100.00
2022-09-10T10:20:12.107Z,100.00
2022-09-10T10:22:42.751Z,100.00
2022-09-10T10:25:36.583Z,100.00
2022-09-10T10:28:05.512Z,100.00
2022-09-10T10:30:33.714Z,100.00
2022-09-10T10:33:03.767Z,100.00
2022-09-10T10:35:37.638Z,100.00
2022-09-10T10:38:18.516Z,100.00
2022-09-10T10:40:51.621Z,100.00
2022-09-10T10:43:29.218Z,100.00
2022-09-10T10:46:02.332Z,100.00
2022-09-10T10:48:39.969Z,100.00
2022-09-10T10:51:14.827Z,100.00
2022-09-10T10:53:53.935Z,100.00
2022-09-10T10:56:26.034Z,100.00
2022-09-10T10:59:10.330Z,100.00
2022-09-10T11:01:41.533Z,100.00
2022-09-10T11:04:24.768Z,100.00
2022-09-10T11:06:59.594Z,100.00
2022-09-10T11:09:32.684Z,100.00
2022-09-10T11:12:03.773Z,100.00
2022-09-10T11:14:37.709Z,100.00
2022-09-10T11:17:11.521Z,100.00
2022-09-10T11:19:43.676Z,100.00
2022-09-10T11:22:15.526Z,100.00
2022-09-10T11:24:49.073Z,100.00
2022-09-10T11:27:21.211Z,100.00
2022-09-10T11:29:53.398Z,100.00
2022-09-10T11:32:29.443Z,100.00
2022-09-10T11:35:02.673Z,100.00
2022-09-10T11:37:45.087Z,100.00
2022-09-10T11:40:20.783Z,100.00
2022-09-10T11:42:52.307Z,100.00
2022-09-10T11:45:25.095Z,100.00
2022-09-10T11:47:57.144Z,100.00
2022-09-10T11:50:33.842Z,100.00
2022-09-10T11:53:07.304Z,100.00
2022-09-10T11:55:49.344Z,100.00
2022-09-10T11:58:22.666Z,100.00
2022-09-10T12:00:59.381Z,100.00
2022-09-10T12:03:47.635Z,100.00
2022-09-10T12:06:18.513Z,100.00
2022-09-10T12:08:56.981Z,100.00
2022-09-10T12:11:31.680Z,100.00
2022-09-10T12:14:00.568Z,100.00
2022-09-10T12:16:34.872Z,100.00
2022-09-10T12:19:07.080Z,100.00
2022-09-10T12:21:39.244Z,100.00
2022-09-10T12:24:25.729Z,100.00
2022-09-10T12:26:55.734Z,100.00
2022-09-10T12:29:33.214Z,100.00
2022-09-10T12:32:35.217Z,100.00
2022-09-10T12:35:46.099Z,100.00
2022-09-10T12:38:48.948Z,100.00
2022-09-10T12:41:54.336Z,100.00
2022-09-10T12:44:48.210Z,100.00
2022-09-10T12:47:53.219Z,100.00
2022-09-10T12:50:34.508Z,100.00
2022-09-10T12:53:40.007Z,100.00
2022-09-10T12:56:32.991Z,100.00
2022-09-10T12:59:15.553Z,100.00
2022-09-10T13:01:47.796Z,100.00
2022-09-10T13:04:25.614Z,100.00
2022-09-10T13:06:56.905Z,100.00
2022-09-10T13:09:28.125Z,100.00
2022-09-10T13:11:59.235Z,100.00
2022-09-10T13:14:30.524Z,100.00
2022-09-10T13:17:00.112Z,100.00
2022-09-10T13:19:51.830Z,100.00
2022-09-10T13:23:04.096Z,100.00
2022-09-10T13:25:41.512Z,100.00
2022-09-10T13:28:47.595Z,100.00
2022-09-10T13:31:21.919Z,100.00
2022-09-10T13:34:11.210Z,100.00
2022-09-10T13:36:45.412Z,97.38
2022-09-10T13:39:28.883Z,87.60
2022-09-10T13:42:25.685Z,82.80
2022-09-10T13:45:04.760Z,89.98
2022-09-10T13:47:37.582Z,96.25
2022-09-10T13:50:14.276Z,91.23
2022-09-10T13:52:45.204Z,85.07
2022-09-10T13:55:17.905Z,84.74
2022-09-10T13:57:48.665Z,87.38
2022-09-10T14:00:23.746Z,90.64
2022-09-10T14:02:53.818Z,86.44
2022-09-10T14:05:30.312Z,87.91
2022-09-10T14:08:01.826Z,82.81
2022-09-10T14:10:30.400Z,86.80
2022-09-10T14:12:59.553Z,89.68
2022-09-10T14:15:33.376Z,96.20
2022-09-10T14:18:01.857Z,87.98
2022-09-10T14:20:33.292Z,87.73
2022-09-10T14:23:03.300Z,89.22
2022-09-10T14:25:34.464Z,86.74
2022-09-10T14:28:22.007Z,85.42
2022-09-10T14:30:51.898Z,94.97
2022-09-10T14:33:25.722Z,100.00
2022-09-10T14:35:57.974Z,100.00
2022-09-10T14:38:28.060Z,100.00
2022-09-10T14:40:58.729Z,100.00
2022-09-10T14:43:30.417Z,100.00
2022-09-10T14:45:58.741Z,100.00
2022-09-10T14:48:33.501Z,100.00
2022-09-10T14:51:14.453Z,100.00
2022-09-10T14:53:43.604Z,100.00
2022-09-10T14:56:22.324Z,100.00
2022-09-10T14:59:01.067Z,100.00
2022-09-10T15:01:30.104Z,100.00
2022-09-10T15:03:59.681Z,100.00
2022-09-10T15:06:31.682Z,100.00
2022-09-10T15:09:00.654Z,100.00
2022-09-10T15:11:29.244Z,100.00
2022-09-10T15:13:59.249Z,100.00
2022-09-10T15:16:28.056Z,100.00
2022-09-10T15:18:58.203Z,100.00
2022-09-10T15:21:26.740Z,100.00
2022-09-10T15:23:56.312Z,100.00
2022-09-10T15:26:25.432Z,100.00
2022-09-10T15:28:53.761Z,100.00
2022-09-10T15:31:23.242Z,100.00
2022-09-10T15:33:52.880Z,100.00
2022-09-10T15:36:22.427Z,100.00
2022-09-10T15:38:53.841Z,100.00
2022-09-10T15:41:23.519Z,100.00
2022-09-10T15:43:51.807Z,100.00
2022-09-10T15:46:21.912Z,100.00
2022-09-10T15:48:50.187Z,100.00
2022-09-10T15:51:21.329Z,100.00
2022-09-10T15:53:50.941Z,100.00
2022-09-10T15:56:19.864Z,100.00
2022-09-10T15:58:55.101Z,100.00
2022-09-10T16:01:25.056Z,100.00
2022-09-10T16:03:55.358Z,100.00
2022-09-10T16:06:24.590Z,100.00
2022-09-10T16:08:57.290Z,100.00
2022-09-10T16:11:26.308Z,100.00
2022-09-10T16:14:02.161Z,100.00
2022-09-10T16:16:33.414Z,100.00
2022-09-10T16:19:01.887Z,100.00
2022-09-10T16:21:32.170Z,100.00
2022-09-10T16:24:01.582Z,100.00
2022-09-10T16:26:31.693Z,100.00
2022-09-10T16:29:02.782Z,100.00
2022-09-10T16:31:33.059Z,100.00
2022-09-10T16:34:03.441Z,100.00
2022-09-10T16:36:32.962Z,100.00
2022-09-10T16:39:02.722Z,100.00
2022-09-10T16:41:31.819Z,100.00
2022-09-10T16:44:01.984Z,100.00
2022-09-10T16:46:30.835Z,100.00
2022-09-10T16:48:59.570Z,100.00
2022-09-10T16:51:29.307Z,100.00
2022-09-10T16:54:02.651Z,100.00
2022-09-10T16:56:33.530Z,100.00
2022-09-10T16:59:03.523Z,100.00
2022-09-10T17:01:31.989Z,100.00
2022-09-10T17:04:02.190Z,100.00
2022-09-10T17:06:31.405Z,100.00
2022-09-10T17:09:00.993Z,100.00
2022-09-10T17:11:31.412Z,100.00
2022-09-10T17:14:01.265Z,100.00
2022-09-10T17:16:32.687Z,100.00
2022-09-10T17:19:02.337Z,100.00
2022-09-10T17:21:32.491Z,100.00
2022-09-10T17:24:02.025Z,100.00
2022-09-10T17:26:30.918Z,100.00
2022-09-10T17:29:01.014Z,100.00
2022-09-10T17:31:31.210Z,100.00
2022-09-10T17:33:59.776Z,100.00
2022-09-10T17:36:28.953Z,100.00
2022-09-10T17:38:59.060Z,100.00
2022-09-10T17:41:28.443Z,100.00
2022-09-10T17:43:57.377Z,100.00
2022-09-10T17:46:26.562Z,100.00
2022-09-10T17:48:56.321Z,100.00
2022-09-10T17:51:26.159Z,100.00
2022-09-10T17:53:55.879Z,100.00
2022-09-10T17:56:25.740Z,100.00
2022-09-10T17:58:57.914Z,100.00
2022-09-10T18:01:28.017Z,100.00
2022-09-10T18:03:57.720Z,100.00
2022-09-10T18:06:29.114Z,100.00
2022-09-10T18:08:58.997Z,100.00
2022-09-10T18:11:29.107Z,100.00
2022-09-10T18:13:58.588Z,100.00
2022-09-10T18:16:28.172Z,100.00
2022-09-10T18:18:59.432Z,100.00
2022-09-10T18:21:31.025Z,100.00
2022-09-10T18:24:01.267Z,100.00
2022-09-10T18:26:31.174Z,100.00
2022-09-10T18:29:01.977Z,100.00
2022-09-10T18:31:32.585Z,100.00
2022-09-10T18:34:02.680Z,100.00
2022-09-10T18:36:31.495Z,100.00
2022-09-10T18:39:03.151Z,100.00
2022-09-10T18:41:33.053Z,100.00
2022-09-10T18:44:04.023Z,100.00
2022-09-10T18:46:33.338Z,100.00
2022-09-10T18:49:03.502Z,100.00
2022-09-10T18:51:32.155Z,100.00
2022-09-10T18:54:01.779Z,100.00
2022-09-10T18:56:32.130Z,100.00
2022-09-10T18:59:03.133Z,100.00
2022-09-10T19:01:32.187Z,100.00
2022-09-10T19:04:01.153Z,100.00
2022-09-10T19:06:31.963Z,100.00
2022-09-10T19:09:04.141Z,100.00
2022-09-10T19:11:34.753Z,100.00
2022-09-10T19:14:06.669Z,100.00
2022-09-10T19:16:36.831Z,100.00
2022-09-10T19:19:06.711Z,100.00
2022-09-10T19:21:36.788Z,100.00
2022-09-10T19:24:05.420Z,100.00
2022-09-10T19:26:35.190Z,100.00
2022-09-10T19:29:04.258Z,100.00
2022-09-10T19:31:34.426Z,100.00
2022-09-10T19:34:04.349Z,100.00
2022-09-10T19:36:35.410Z,100.00
2022-09-10T19:39:06.889Z,100.00
2022-09-10T19:41:36.285Z,100.00
2022-09-10T19:44:04.844Z,100.00
2022-09-10T19:46:33.533Z,100.00
2022-09-10T19:49:01.999Z,100.00
2022-09-10T19:51:32.222Z,100.00
2022-09-10T19:54:00.759Z,100.00
2022-09-10T19:56:32.210Z,100.00
2022-09-10T19:59:02.603Z,100.00
2022-09-10T20:01:32.486Z,100.00
2022-09-10T20:04:01.857Z,100.00
2022-09-10T20:06:30.771Z,100.00
2022-09-10T20:08:59.733Z,100.00
2022-09-10T20:11:31.358Z,100.00
2022-09-10T20:14:01.004Z,100.00
2022-09-10T20:16:31.363Z,100.00
2022-09-10T20:18:59.862Z,100.00
2022-09-10T20:21:31.195Z,100.00
2022-09-10T20:23:59.816Z,100.00
2022-09-10T20:26:31.520Z,100.00
2022-09-10T20:29:01.614Z,100.00
2022-09-10T20:31:32.025Z,100.00
2022-09-10T20:34:00.859Z,100.00
2022-09-10T20:36:29.427Z,100.00
2022-09-10T20:38:57.861Z,100.00
2022-09-10T20:41:30.057Z,100.00
2022-09-10T20:44:01.924Z,100.00
2022-09-10T20:46:31.297Z,100.00
2022-09-10T20:49:02.925Z,100.00
2022-09-10T20:51:32.763Z,100.00
2022-09-10T20:54:01.311Z,100.00
2022-09-10T20:56:29.971Z,100.00
2022-09-10T20:58:59.594Z,100.00
2022-09-10T21:01:31.141Z,100.00
2022-09-10T21:04:01.345Z,100.00
2022-09-10T21:06:31.256Z,100.00
2022-09-10T21:08:59.774Z,100.00
2022-09-10T21:11:30.674Z,100.00
2022-09-10T21:14:01.872Z,100.00
2022-09-10T21:16:32.200Z,100.00
2022-09-10T21:19:01.897Z,100.00
2022-09-10T21:21:31.759Z,100.00
2022-09-10T21:24:02.422Z,100.00
2022-09-10T21:26:32.518Z,100.00
2022-09-10T21:29:03.621Z,100.00
2022-09-10T21:31:32.362Z,100.00
2022-09-10T21:34:03.387Z,100.00
2022-09-10T21:36:32.669Z,100.00
2022-09-10T21:39:01.983Z,100.00
2022-09-10T21:41:32.265Z,100.00
2022-09-10T21:44:02.985Z,100.00
2022-09-10T21:46:32.322Z,100.00
2022-09-10T21:49:00.773Z,100.00
2022-09-10T21:51:29.014Z,100.00
2022-09-10T21:53:58.175Z,100.00
2022-09-10T21:56:27.832Z,100.00
2022-09-10T21:58:56.900Z,100.00
2022-09-10T22:01:27.977Z,100.00
2022-09-10T22:03:58.046Z,100.00
2022-09-10T22:06:27.480Z,100.00
2022-09-10T22:08:58.394Z,100.00
2022-09-10T22:11:30.244Z,100.00
2022-09-10T22:14:01.207Z,100.00
2022-09-10T22:16:32.221Z,100.00
2022-09-10T22:19:02.642Z,100.00
2022-09-10T22:21:31.485Z,100.00
2022-09-10T22:23:59.832Z,100.00
2022-09-10T22:26:29.263Z,100.00
2022-09-10T22:28:59.952Z,100.00
2022-09-10T22:31:31.576Z,100.00
2022-09-10T22:34:01.284Z,100.00
2022-09-10T22:36:32.003Z,100.00
2022-09-10T22:39:01.672Z,100.00
2022-09-10T22:41:31.643Z,100.00
2022-09-10T22:44:00.194Z,100.00
2022-09-10T22:46:30.388Z,100.00
2022-09-10T22:48:59.291Z,100.00
2022-09-10T22:51:29.813Z,100.00
2022-09-10T22:53:58.060Z,100.00
2022-09-10T22:56:27.222Z,100.00
2022-09-10T22:58:56.651Z,100.00
2022-09-10T23:01:27.472Z,100.00
2022-09-10T23:03:57.675Z,100.00
2022-09-10T23:08:56.376Z,100.00
2022-09-10T23:11:26.142Z,100.00
2022-09-10T23:13:56.792Z,100.00
2022-09-10T23:16:26.751Z,100.00
2022-09-10T23:18:57.571Z,100.00
2022-09-10T23:21:27.363Z,100.00
2022-09-10T23:23:57.001Z,100.00
2022-09-10T23:26:25.654Z,100.00
2022-09-10T23:28:54.133Z,100.00
2022-09-10T23:31:23.964Z,100.00
2022-09-10T23:33:55.668Z,100.00
2022-09-10T23:36:26.397Z,100.00
2022-09-10T23:38:54.927Z,100.00
2022-09-10T23:41:23.503Z,100.00
2022-09-10T23:43:51.709Z,100.00
2022-09-10T23:46:20.023Z,100.00
2022-09-10T23:48:49.308Z,100.00
2022-09-10T23:51:18.882Z,100.00
2022-09-10T23:53:49.079Z,100.00
2022-09-10T23:56:19.206Z,100.00
2022-09-10T23:58:47.801Z,100.00
